Time;durP1;ratioP1;P1;durP2;ratioP2;P2;SDS_P1;SDS_P2;PMS_P1;PMS_P2;Temp;Humidity;BMP_temperature;BMP_pressure;BME280_temperature;BME280_humidity;BME280_pressure;Samples;Min_cycle;Max_cycle;Signal;HPM_P1;HPM_P2
2023/12/06 00:00:19;;;;;;;;;;;21.40;33.90;;;;;;4995846;28;19926;-55
2023/12/06 00:02:49;;;;;;;;;;;21.40;33.90;;;;;;4995957;28;19961;-54
2023/12/06 00:05:16;;;;;;;;;;;21.40;33.90;;;;;;4995351;28;20382;-54
2023/12/06 00:07:43;;;;;;;;;;;21.40;33.90;;;;;;4995772;28;19948;-53
2023/12/06 00:10:10;;;;;;;;;;;21.40;33.90;;;;;;4995150;28;20017;-54
2023/12/06 00:12:37;;;;;;;;;;;21.40;33.90;;;;;;4995529;28;19949;-58
2023/12/06 00:15:04;;;;;;;;;;;21.40;33.90;;;;;;4995197;28;20386;-49
2023/12/06 00:17:31;;;;;;;;;;;21.40;33.90;;;;;;4977899;28;20008;-51
2023/12/06 00:19:58;;;;;;;;;;;21.40;33.90;;;;;;4995084;28;19926;-53
2023/12/06 00:22:26;;;;;;;;;;;21.40;33.90;;;;;;4995148;28;19929;-55
2023/12/06 00:24:53;;;;;;;;;;;21.40;33.80;;;;;;4995077;28;20009;-53
2023/12/06 00:27:21;;;;;;;;;;;21.40;33.90;;;;;;4995058;28;19925;-55
2023/12/06 00:29:48;;;;;;;;;;;21.40;33.90;;;;;;4995058;28;20287;-53
2023/12/06 00:32:15;;;;;;;;;;;21.40;33.90;;;;;;5001142;28;20313;-51
2023/12/06 00:34:42;;;;;;;;;;;21.40;33.90;;;;;;5014224;28;20020;-52
2023/12/06 00:37:09;;;;;;;;;;;21.40;33.90;;;;;;5014241;28;19932;-53
2023/12/06 00:39:36;;;;;;;;;;;21.40;33.90;;;;;;5014143;28;19969;-53
2023/12/06 00:42:04;;;;;;;;;;;21.40;33.90;;;;;;5014355;28;19929;-49
2023/12/06 00:44:31;;;;;;;;;;;21.40;33.90;;;;;;5014498;28;20012;-51
2023/12/06 00:46:58;;;;;;;;;;;21.30;33.80;;;;;;5014481;28;19929;-49
2023/12/06 00:49:25;;;;;;;;;;;21.30;33.80;;;;;;4996840;28;19929;-51
2023/12/06 00:51:52;;;;;;;;;;;21.30;33.80;;;;;;5014474;28;20289;-50
2023/12/06 00:54:19;;;;;;;;;;;21.30;33.80;;;;;;5013933;28;19926;-52
2023/12/06 00:56:46;;;;;;;;;;;21.30;33.80;;;;;;5013558;28;20338;-54
2023/12/06 00:59:13;;;;;;;;;;;21.30;33.80;;;;;;5013656;28;19932;-49
2023/12/06 01:01:40;;;;;;;;;;;21.30;33.80;;;;;;5014059;28;20012;-51
2023/12/06 01:04:07;;;;;;;;;;;21.30;33.80;;;;;;5014425;28;19925;-51
2023/12/06 01:06:35;;;;;;;;;;;21.30;33.80;;;;;;5014183;28;19965;-53
2023/12/06 01:09:02;;;;;;;;;;;21.30;33.80;;;;;;5014125;28;19925;-51
2023/12/06 01:11:29;;;;;;;;;;;21.30;33.80;;;;;;5014252;28;19925;-51
2023/12/06 01:13:56;;;;;;;;;;;21.30;33.80;;;;;;5014138;28;19929;-49
2023/12/06 01:16:23;;;;;;;;;;;21.30;33.80;;;;;;5013705;28;19925;-52
2023/12/06 01:18:50;;;;;;;;;;;21.30;33.90;;;;;;5013745;28;20016;-50
2023/12/06 01:21:17;;;;;;;;;;;21.30;33.90;;;;;;4996262;28;19929;-58
2023/12/06 01:23:45;;;;;;;;;;;21.30;33.80;;;;;;4996452;28;19937;-52
2023/12/06 01:26:12;;;;;;;;;;;21.30;33.80;;;;;;5013746;28;20404;-52
2023/12/06 01:28:40;;;;;;;;;;;21.30;33.80;;;;;;5013501;28;19976;-52
2023/12/06 01:31:08;;;;;;;;;;;21.30;33.80;;;;;;5013887;28;19932;-52
2023/12/06 01:33:35;;;;;;;;;;;21.30;33.80;;;;;;5013876;28;20331;-54
2023/12/06 01:36:02;;;;;;;;;;;21.30;33.80;;;;;;5013770;28;19981;-55
2023/12/06 01:38:29;;;;;;;;;;;21.30;33.80;;;;;;5013140;28;20016;-56
2023/12/06 01:40:56;;;;;;;;;;;21.30;33.80;;;;;;4996107;28;19984;-56
2023/12/06 01:43:23;;;;;;;;;;;21.30;33.80;;;;;;5013539;28;19933;-53
2023/12/06 01:45:52;;;;;;;;;;;21.30;34.30;;;;;;4996024;28;20388;-52
2023/12/06 01:48:20;;;;;;;;;;;21.30;33.80;;;;;;5013577;28;20353;-55
2023/12/06 01:50:48;;;;;;;;;;;21.30;33.80;;;;;;5013910;28;19929;-52
2023/12/06 01:53:15;;;;;;;;;;;21.30;33.80;;;;;;5013599;28;19991;-50
2023/12/06 01:55:42;;;;;;;;;;;21.20;33.90;;;;;;5013702;28;19987;-52
2023/12/06 01:58:09;;;;;;;;;;;21.30;33.70;;;;;;5013283;28;20461;-52
2023/12/06 02:00:36;;;;;;;;;;;21.30;33.70;;;;;;5013319;28;19983;-54
2023/12/06 02:03:03;;;;;;;;;;;21.30;33.70;;;;;;5013436;28;20425;-53
2023/12/06 02:05:30;;;;;;;;;;;21.20;33.70;;;;;;4995986;28;20375;-51
2023/12/06 02:07:58;;;;;;;;;;;21.20;33.70;;;;;;5013238;28;19926;-51
2023/12/06 02:10:25;;;;;;;;;;;21.20;33.70;;;;;;5017253;28;19979;-52
2023/12/06 02:12:52;;;;;;;;;;;21.20;33.70;;;;;;5000173;28;19925;-51
2023/12/06 02:15:21;;;;;;;;;;;21.20;33.70;;;;;;5017416;28;19973;-52
2023/12/06 02:17:49;;;;;;;;;;;21.20;33.70;;;;;;5017078;28;19961;-51
2023/12/06 02:20:16;;;;;;;;;;;21.20;33.70;;;;;;5016898;28;19925;-50
2023/12/06 02:22:43;;;;;;;;;;;21.20;33.70;;;;;;5016904;28;19952;-50
2023/12/06 02:25:12;;;;;;;;;;;21.20;33.70;;;;;;5016999;28;19965;-53
2023/12/06 02:27:40;;;;;;;;;;;21.20;33.70;;;;;;5016813;28;20012;-54
2023/12/06 02:30:07;;;;;;;;;;;21.20;33.70;;;;;;5016730;28;20420;-51
2023/12/06 02:32:34;;;;;;;;;;;21.20;33.70;;;;;;5017023;28;19957;-50
2023/12/06 02:35:03;;;;;;;;;;;21.20;33.80;;;;;;5017034;28;20020;-53
2023/12/06 02:37:30;;;;;;;;;;;21.20;33.70;;;;;;5016448;28;20442;-49
2023/12/06 02:39:59;;;;;;;;;;;21.20;33.70;;;;;;5016233;28;19925;-52
2023/12/06 02:42:26;;;;;;;;;;;21.20;33.70;;;;;;5016873;28;19933;-53
2023/12/06 02:44:53;;;;;;;;;;;21.20;33.70;;;;;;5016690;28;20016;-51
2023/12/06 02:47:21;;;;;;;;;;;21.20;33.70;;;;;;5016869;28;19929;-49
2023/12/06 02:49:48;;;;;;;;;;;21.20;33.60;;;;;;5016639;28;20382;-53
2023/12/06 02:52:15;;;;;;;;;;;21.20;33.60;;;;;;5016631;28;19929;-50
2023/12/06 02:54:42;;;;;;;;;;;21.20;33.70;;;;;;5016304;28;19925;-55
2023/12/06 02:57:09;;;;;;;;;;;21.20;33.60;;;;;;5009015;28;19933;-49
2023/12/06 02:59:36;;;;;;;;;;;21.20;33.60;;;;;;5011356;28;19972;-49
2023/12/06 03:02:04;;;;;;;;;;;21.20;33.60;;;;;;5011733;28;20015;-50
2023/12/06 03:04:31;;;;;;;;;;;21.20;33.70;;;;;;5016202;28;19932;-52
2023/12/06 03:06:58;;;;;;;;;;;21.20;33.70;;;;;;5016041;28;20461;-54
2023/12/06 03:09:25;;;;;;;;;;;21.20;33.70;;;;;;5014904;28;19929;-51
2023/12/06 03:11:52;;;;;;;;;;;21.20;33.70;;;;;;5013159;28;20032;-52
2023/12/06 03:14:19;;;;;;;;;;;21.20;33.60;;;;;;5015704;28;19989;-49
2023/12/06 03:16:46;;;;;;;;;;;21.20;33.70;;;;;;5014284;28;20032;-52
2023/12/06 03:19:13;;;;;;;;;;;21.20;33.70;;;;;;5015748;28;20012;-54
2023/12/06 03:21:41;;;;;;;;;;;21.20;33.60;;;;;;5015091;28;19927;-55
2023/12/06 03:24:08;;;;;;;;;;;21.20;33.70;;;;;;5016228;28;19941;-56
2023/12/06 03:26:35;;;;;;;;;;;21.20;33.70;;;;;;5015747;28;19930;-51
2023/12/06 03:29:02;;;;;;;;;;;21.20;33.70;;;;;;5015754;28;19929;-53
2023/12/06 03:31:29;;;;;;;;;;;21.20;33.70;;;;;;5014887;28;19972;-52
2023/12/06 03:33:56;;;;;;;;;;;21.20;33.70;;;;;;5014762;28;19944;-52
2023/12/06 03:36:23;;;;;;;;;;;21.10;33.60;;;;;;5008734;28;20016;-49
2023/12/06 03:38:50;;;;;;;;;;;21.10;33.70;;;;;;5007226;28;19926;-54
2023/12/06 03:41:19;;;;;;;;;;;21.10;33.70;;;;;;5015270;28;20330;-52
2023/12/06 03:43:46;;;;;;;;;;;21.10;33.70;;;;;;5015107;28;20379;-52
2023/12/06 03:46:28;;;;;;;;;;;21.10;33.70;;;;;;5015275;28;19953;-53
2023/12/06 03:48:55;;;;;;;;;;;21.10;33.70;;;;;;5015314;28;20378;-49
2023/12/06 03:51:23;;;;;;;;;;;21.10;33.70;;;;;;4998373;28;19933;-52
2023/12/06 03:53:50;;;;;;;;;;;21.20;33.70;;;;;;5011766;28;20444;-53
2023/12/06 03:56:17;;;;;;;;;;;21.10;33.70;;;;;;4995513;28;20365;-50
2023/12/06 03:58:43;;;;;;;;;;;21.20;33.70;;;;;;5014227;28;19926;-50
2023/12/06 04:01:12;;;;;;;;;;;21.20;34.20;;;;;;5015474;28;20043;-49
2023/12/06 04:03:40;;;;;;;;;;;21.10;33.60;;;;;;5015550;28;20377;-49
2023/12/06 04:06:07;;;;;;;;;;;21.10;33.60;;;;;;5015097;28;19983;-52
2023/12/06 04:08:34;;;;;;;;;;;21.10;33.70;;;;;;5014074;28;19926;-54
2023/12/06 04:11:02;;;;;;;;;;;21.10;33.70;;;;;;4997929;28;20259;-52
2023/12/06 04:13:28;;;;;;;;;;;21.10;33.70;;;;;;5014860;28;19926;-54
2023/12/06 04:15:56;;;;;;;;;;;21.10;33.70;;;;;;5014716;28;20386;-52
2023/12/06 04:18:23;;;;;;;;;;;21.10;33.70;;;;;;5014628;28;19932;-50
2023/12/06 04:20:51;;;;;;;;;;;21.10;33.70;;;;;;5015235;28;20326;-53
2023/12/06 04:23:18;;;;;;;;;;;21.10;33.70;;;;;;5014888;28;19965;-50
2023/12/06 04:25:46;;;;;;;;;;;21.10;33.70;;;;;;5014739;28;19933;-50
2023/12/06 04:28:13;;;;;;;;;;;21.10;33.70;;;;;;5014468;28;19926;-55
2023/12/06 04:30:40;;;;;;;;;;;21.10;33.70;;;;;;5014445;28;19933;-52
2023/12/06 04:33:08;;;;;;;;;;;21.10;33.70;;;;;;5014344;28;20383;-52
2023/12/06 04:35:34;;;;;;;;;;;21.10;33.70;;;;;;5013620;28;19931;-50
2023/12/06 04:38:01;;;;;;;;;;;21.10;33.70;;;;;;5014517;28;19987;-54
2023/12/06 04:40:28;;;;;;;;;;;21.10;33.70;;;;;;5008512;28;19926;-52
2023/12/06 04:42:55;;;;;;;;;;;21.10;33.50;;;;;;5009826;28;19937;-51
2023/12/06 04:45:23;;;;;;;;;;;21.10;33.40;;;;;;5009919;28;19933;-50
2023/12/06 04:47:50;;;;;;;;;;;21.10;33.40;;;;;;5012741;28;20379;-52
2023/12/06 04:50:17;;;;;;;;;;;21.20;33.40;;;;;;5013957;28;19932;-55
2023/12/06 04:52:44;;;;;;;;;;;21.20;33.30;;;;;;5013648;28;20068;-50
2023/12/06 04:55:11;;;;;;;;;;;21.20;33.30;;;;;;5013637;28;19925;-54
2023/12/06 04:57:38;;;;;;;;;;;21.20;33.20;;;;;;5011644;28;19925;-53
2023/12/06 05:00:08;;;;;;;;;;;21.20;33.20;;;;;;5012352;28;19984;-55
2023/12/06 05:02:35;;;;;;;;;;;21.30;33.20;;;;;;5001035;28;20353;-55
2023/12/06 05:05:02;;;;;;;;;;;21.30;33.20;;;;;;5014167;28;19980;-54
2023/12/06 05:07:29;;;;;;;;;;;21.30;33.20;;;;;;5013302;28;20307;-54
2023/12/06 05:09:56;;;;;;;;;;;21.30;33.00;;;;;;5014101;28;20020;-51
2023/12/06 05:12:23;;;;;;;;;;;21.40;33.00;;;;;;5008276;28;19932;-53
2023/12/06 05:14:50;;;;;;;;;;;21.50;33.00;;;;;;5009646;28;20054;-53
2023/12/06 05:17:17;;;;;;;;;;;21.50;32.80;;;;;;5003731;28;20019;-51
2023/12/06 05:19:44;;;;;;;;;;;21.60;32.80;;;;;;5013056;28;20338;-54
2023/12/06 05:22:11;;;;;;;;;;;21.60;32.70;;;;;;5010579;28;19969;-52
2023/12/06 05:24:39;;;;;;;;;;;21.60;32.60;;;;;;5011965;28;20370;-52
2023/12/06 05:27:06;;;;;;;;;;;21.60;32.60;;;;;;5012609;28;20334;-54
2023/12/06 05:29:33;;;;;;;;;;;21.60;32.60;;;;;;5013097;28;20412;-52
2023/12/06 05:32:00;;;;;;;;;;;21.60;32.50;;;;;;5013276;28;20335;-54
2023/12/06 05:34:27;;;;;;;;;;;21.70;32.60;;;;;;4995662;28;19972;-51
2023/12/06 05:36:54;;;;;;;;;;;21.70;32.50;;;;;;5013708;28;19949;-52
2023/12/06 05:39:21;;;;;;;;;;;21.70;32.50;;;;;;5013817;28;20330;-51
2023/12/06 05:41:48;;;;;;;;;;;21.70;32.50;;;;;;5012478;28;19984;-53
2023/12/06 05:44:15;;;;;;;;;;;21.70;32.40;;;;;;5013228;28;19932;-53
2023/12/06 05:46:42;;;;;;;;;;;21.80;32.40;;;;;;5013560;28;20028;-54
2023/12/06 05:49:09;;;;;;;;;;;21.80;32.30;;;;;;5012927;28;19932;-51
2023/12/06 05:51:36;;;;;;;;;;;21.90;32.30;;;;;;4994659;28;19926;-52
2023/12/06 05:54:03;;;;;;;;;;;21.90;32.20;;;;;;5010980;28;19926;-53
2023/12/06 05:56:30;;;;;;;;;;;22.00;32.30;;;;;;5010779;28;19926;-54
2023/12/06 05:58:57;;;;;;;;;;;22.00;32.20;;;;;;5013055;28;19926;-54
2023/12/06 06:01:25;;;;;;;;;;;22.00;32.20;;;;;;5011241;28;19969;-52
2023/12/06 06:03:52;;;;;;;;;;;22.10;32.10;;;;;;5008084;28;19926;-54
2023/12/06 06:06:19;;;;;;;;;;;22.10;32.00;;;;;;5011997;28;19932;-50
2023/12/06 06:08:46;;;;;;;;;;;22.10;31.90;;;;;;5010736;28;19926;-51
2023/12/06 06:11:13;;;;;;;;;;;22.20;31.90;;;;;;5012508;28;19969;-54
2023/12/06 06:13:41;;;;;;;;;;;22.20;31.90;;;;;;5012467;28;19983;-53
2023/12/06 06:16:08;;;;;;;;;;;22.20;31.90;;;;;;4996554;28;20048;-52
2023/12/06 06:18:35;;;;;;;;;;;22.30;31.90;;;;;;5007724;28;19929;-53
2023/12/06 06:21:05;;;;;;;;;;;22.30;31.90;;;;;;5001360;28;19955;-53
2023/12/06 06:23:33;;;;;;;;;;;22.30;31.80;;;;;;5012202;28;19926;-53
2023/12/06 06:26:00;;;;;;;;;;;22.40;31.80;;;;;;5009150;28;19925;-53
2023/12/06 06:28:27;;;;;;;;;;;22.40;31.80;;;;;;4991145;28;19991;-54
2023/12/06 06:30:54;;;;;;;;;;;22.40;31.80;;;;;;5010682;28;19931;-53
2023/12/06 06:33:21;;;;;;;;;;;22.50;31.80;;;;;;5009056;28;19926;-53
2023/12/06 06:35:48;;;;;;;;;;;22.50;31.90;;;;;;5004908;28;19930;-54
2023/12/06 06:38:16;;;;;;;;;;;22.50;31.90;;;;;;5006320;28;19933;-53
2023/12/06 06:40:43;;;;;;;;;;;22.60;32.00;;;;;;5004963;28;20355;-56
2023/12/06 06:43:10;;;;;;;;;;;22.60;32.00;;;;;;5002492;28;20291;-54
2023/12/06 06:45:42;;;;;;;;;;;22.60;32.20;;;;;;5006210;28;20533;-52
2023/12/06 06:48:09;;;;;;;;;;;22.70;32.80;;;;;;4999797;28;20401;-55
2023/12/06 06:50:36;;;;;;;;;;;22.70;32.80;;;;;;5003032;28;20669;-54
2023/12/06 06:53:03;;;;;;;;;;;22.70;32.70;;;;;;5002617;28;19926;-52
2023/12/06 06:55:30;;;;;;;;;;;22.80;32.80;;;;;;4999009;28;20003;-53
2023/12/06 06:57:58;;;;;;;;;;;22.80;32.70;;;;;;5002066;28;20020;-52
2023/12/06 07:00:26;;;;;;;;;;;22.80;32.70;;;;;;5001030;28;19969;-57
2023/12/06 07:02:59;;;;;;;;;;;22.90;32.70;;;;;;5008167;28;19930;-52
2023/12/06 07:05:26;;;;;;;;;;;23.00;32.80;;;;;;5002568;28;20025;-51
2023/12/06 07:07:53;;;;;;;;;;;23.00;32.70;;;;;;5005017;28;19948;-55
2023/12/06 07:10:20;;;;;;;;;;;23.00;32.70;;;;;;5006538;28;20013;-50
2023/12/06 07:12:48;;;;;;;;;;;23.00;32.60;;;;;;5005908;28;20054;-55
2023/12/06 07:15:15;;;;;;;;;;;23.00;32.70;;;;;;5006236;28;20283;-50
2023/12/06 07:17:43;;;;;;;;;;;23.10;32.80;;;;;;5001533;28;19934;-57
2023/12/06 07:20:14;;;;;;;;;;;23.10;32.80;;;;;;5005488;28;19940;-53
2023/12/06 07:22:42;;;;;;;;;;;23.10;32.70;;;;;;5006955;28;19995;-53
2023/12/06 07:25:10;;;;;;;;;;;23.20;32.70;;;;;;5001894;28;19995;-54
2023/12/06 07:27:37;;;;;;;;;;;23.20;32.70;;;;;;4995970;28;19940;-65
2023/12/06 07:30:04;;;;;;;;;;;23.30;32.90;;;;;;4998290;28;20023;-57
2023/12/06 07:32:32;;;;;;;;;;;23.30;33.00;;;;;;5000520;28;19932;-55
2023/12/06 07:35:16;;;;;;;;;;;23.30;33.10;;;;;;5001594;28;20557;-54
2023/12/06 07:37:43;;;;;;;;;;;23.40;33.20;;;;;;5004404;28;20323;-56
2023/12/06 07:40:11;;;;;;;;;;;23.40;33.20;;;;;;5002003;28;19925;-59
2023/12/06 07:42:38;;;;;;;;;;;23.40;33.30;;;;;;5006028;28;19937;-59
2023/12/06 07:45:09;;;;;;;;;;;23.40;33.30;;;;;;5005327;28;19974;-56
2023/12/06 07:47:36;;;;;;;;;;;23.50;33.30;;;;;;4997398;28;19929;-54
2023/12/06 07:50:05;;;;;;;;;;;23.60;33.40;;;;;;5001590;28;20003;-56
2023/12/06 07:52:33;;;;;;;;;;;23.60;33.40;;;;;;5004762;28;19926;-57
2023/12/06 07:55:06;;;;;;;;;;;23.60;33.60;;;;;;5005959;28;19934;-59
2023/12/06 07:57:34;;;;;;;;;;;23.70;33.70;;;;;;4999528;28;20280;-55
2023/12/06 08:00:02;;;;;;;;;;;23.70;33.60;;;;;;4997265;28;19933;-57
2023/12/06 08:02:29;;;;;;;;;;;23.70;33.60;;;;;;5003858;28;19930;-60
2023/12/06 08:04:56;;;;;;;;;;;23.80;33.60;;;;;;5002587;28;20032;-59
2023/12/06 08:07:24;;;;;;;;;;;23.90;33.80;;;;;;4998083;28;19926;-59
2023/12/06 08:09:53;;;;;;;;;;;23.90;33.70;;;;;;4980027;28;19925;-56
2023/12/06 08:12:20;;;;;;;;;;;23.90;33.70;;;;;;4998434;28;19940;-58
2023/12/06 08:14:47;;;;;;;;;;;23.90;33.70;;;;;;5000438;28;19925;-55
2023/12/06 08:17:15;;;;;;;;;;;24.00;33.70;;;;;;5000652;28;19945;-57
2023/12/06 08:19:42;;;;;;;;;;;24.00;33.60;;;;;;5002574;28;19925;-59
2023/12/06 08:22:10;;;;;;;;;;;24.10;33.50;;;;;;5005813;28;20034;-58
2023/12/06 08:24:40;;;;;;;;;;;24.10;33.60;;;;;;4998418;28;19930;-58
2023/12/06 08:27:07;;;;;;;;;;;24.10;33.40;;;;;;5003397;28;20500;-60
2023/12/06 08:29:34;;;;;;;;;;;24.10;33.30;;;;;;5004820;28;20346;-58
2023/12/06 08:32:01;;;;;;;;;;;24.20;33.20;;;;;;5004786;28;19935;-59
2023/12/06 08:34:28;;;;;;;;;;;24.20;33.30;;;;;;5000847;28;19931;-56
2023/12/06 08:36:55;;;;;;;;;;;24.20;33.20;;;;;;5003370;28;20461;-58
2023/12/06 08:39:23;;;;;;;;;;;24.20;33.00;;;;;;5002123;28;20024;-59
2023/12/06 08:41:50;;;;;;;;;;;24.20;33.00;;;;;;5005103;28;19932;-60
2023/12/06 08:44:17;;;;;;;;;;;24.20;33.10;;;;;;4997915;28;19933;-56
2023/12/06 08:46:44;;;;;;;;;;;24.30;33.10;;;;;;5000393;28;20347;-58
2023/12/06 08:49:11;;;;;;;;;;;24.30;33.00;;;;;;5002420;28;19976;-58
2023/12/06 08:51:39;;;;;;;;;;;24.30;33.10;;;;;;4998846;28;20314;-59
2023/12/06 08:54:06;;;;;;;;;;;24.30;33.00;;;;;;4998551;28;19980;-61
2023/12/06 08:56:33;;;;;;;;;;;24.40;33.00;;;;;;4980906;28;20267;-59
2023/12/06 08:59:00;;;;;;;;;;;24.40;32.90;;;;;;5003096;28;19936;-57
2023/12/06 09:01:27;;;;;;;;;;;24.40;32.90;;;;;;4989358;28;20011;-58
2023/12/06 09:03:55;;;;;;;;;;;24.40;32.90;;;;;;4977452;28;19934;-58
2023/12/06 09:06:22;;;;;;;;;;;24.50;32.80;;;;;;4980694;28;19933;-58
2023/12/06 09:08:50;;;;;;;;;;;24.50;32.90;;;;;;4979471;28;20063;-58
2023/12/06 09:11:20;;;;;;;;;;;24.50;32.80;;;;;;4982015;28;20010;-63
2023/12/06 09:58:33;;;;;;;;;;;24.70;32.30;;;;;;4976932;28;19926;-63
2023/12/06 10:01:01;;;;;;;;;;;24.70;32.30;;;;;;4977262;28;20335;-57
2023/12/06 10:03:28;;;;;;;;;;;24.70;32.30;;;;;;4978035;28;19926;-62
2023/12/06 10:05:56;;;;;;;;;;;24.70;32.60;;;;;;4978360;28;19957;-54
2023/12/06 10:08:23;;;;;;;;;;;24.70;32.50;;;;;;4961420;28;20320;-62
2023/12/06 10:11:04;;;;;;;;;;;24.80;32.50;;;;;;4977406;28;19932;-57
2023/12/06 10:13:35;;;;;;;;;;;24.80;32.60;;;;;;4976225;28;19926;-62
2023/12/06 10:16:02;;;;;;;;;;;24.80;32.60;;;;;;4976414;28;19930;-58
2023/12/06 10:18:31;;;;;;;;;;;24.80;32.60;;;;;;4959464;28;19926;-62
2023/12/06 10:38:18;;;;;;;;;;;;;;;;;;;;;
2023/12/06 10:40:46;;;;;;;;;;;24.90;32.10;;;;;;4995568;28;20549;-90
2023/12/06 10:43:28;;;;;;;;;;;24.90;32.00;;;;;;4976911;28;19933;-91
2023/12/06 10:46:15;;;;;;;;;;;24.90;31.90;;;;;;4974532;28;19933;-93
2023/12/06 10:48:48;;;;;;;;;;;24.90;31.60;;;;;;4970830;28;19941;-91
2023/12/06 10:54:08;;;;;;;;;;;24.90;31.70;;;;;;4988448;28;19933;-96
2023/12/06 10:59:31;;;;;;;;;;;24.90;31.70;;;;;;5046270;23;19943;-62
2023/12/06 11:01:59;;;;;;;;;;;24.90;31.70;;;;;;5038864;28;19925;-58
2023/12/06 11:04:29;;;;;;;;;;;24.90;31.70;;;;;;5040661;28;19972;-61
2023/12/06 11:07:05;;;;;;;;;;;24.90;31.70;;;;;;5040639;28;19990;-55
2023/12/06 11:10:00;;;;;;;;;;;24.90;31.90;;;;;;5038136;28;20004;-57
2023/12/06 11:13:35;;;;;;;;;;;24.90;31.90;;;;;;5039561;28;20016;-56
2023/12/06 11:16:14;;;;;;;;;;;24.90;31.70;;;;;;5038947;28;20031;-56
2023/12/06 11:18:45;;;;;;;;;;;24.90;31.80;;;;;;5021120;28;19925;-56
2023/12/06 11:21:13;;;;;;;;;;;24.90;31.90;;;;;;5039062;28;19925;-55
2023/12/06 11:23:41;;;;;;;;;;;25.00;32.30;;;;;;5039193;28;20445;-54
2023/12/06 11:26:08;;;;;;;;;;;25.00;32.50;;;;;;5039552;28;19925;-54
2023/12/06 11:29:03;;;;;;;;;;;25.10;32.50;;;;;;5037915;28;19975;-57
2023/12/06 11:32:02;;;;;;;;;;;25.10;32.20;;;;;;5036461;28;19921;-57
2023/12/06 11:38:17;;;;;;;;;;;25.10;32.10;;;;;;5036946;28;20335;-63
2023/12/06 11:41:15;;;;;;;;;;;25.10;32.30;;;;;;5489284;23;19925;-59
2023/12/06 11:43:48;;;;;;;;;;;25.10;32.50;;;;;;5037794;28;19921;-58
2023/12/06 11:46:15;;;;;;;;;;;25.10;32.40;;;;;;5037453;28;19921;-53
2023/12/06 12:07:01;;;;;;;;;;;25.30;32.90;;;;;;5706443;22;19930;-57
2023/12/06 12:09:29;;;;;;;;;;;25.30;32.20;;;;;;4997542;28;19930;-56
2023/12/06 12:11:57;;;;;;;;;;;25.30;32.00;;;;;;4997272;28;19929;-54
2023/12/06 12:14:31;;;;;;;;;;;25.30;32.20;;;;;;4997865;28;20340;-58
2023/12/06 12:16:59;;;;;;;;;;;25.30;32.10;;;;;;4997556;28;19926;-54
2023/12/06 12:19:27;;;;;;;;;;;25.40;32.20;;;;;;4997450;28;19973;-62
2023/12/06 12:25:03;;;;;;;;;;;25.40;32.10;;;;;;5135918;22;19926;-63
2023/12/06 12:27:31;;;;;;;;;;;25.50;32.30;;;;;;5020310;28;20340;-61
2023/12/06 12:36:12;;;;;;;;;;;25.50;32.10;;;;;;5955566;22;20375;-57
2023/12/06 12:38:39;;;;;;;;;;;25.60;32.00;;;;;;4989866;28;20024;-63
2023/12/06 12:41:10;;;;;;;;;;;25.60;32.20;;;;;;5018378;28;19941;-62
2023/12/06 12:43:37;;;;;;;;;;;25.60;32.20;;;;;;5017887;28;19976;-56
2023/12/06 12:46:05;;;;;;;;;;;25.60;32.20;;;;;;5017296;28;20011;-58
2023/12/06 12:48:32;;;;;;;;;;;25.70;32.50;;;;;;5017676;28;19932;-59
2023/12/06 12:51:13;;;;;;;;;;;25.70;32.20;;;;;;5017325;28;19961;-56
2023/12/06 12:53:41;;;;;;;;;;;25.70;32.10;;;;;;5017561;28;20386;-61
2023/12/06 12:56:09;;;;;;;;;;;25.70;32.00;;;;;;5017763;28;19973;-57
2023/12/06 12:58:37;;;;;;;;;;;25.70;32.00;;;;;;5017379;28;19940;-57
2023/12/06 13:01:04;;;;;;;;;;;25.60;32.60;;;;;;5017690;28;19926;-63
2023/12/06 13:03:32;;;;;;;;;;;25.70;32.20;;;;;;5017906;28;19926;-56
2023/12/06 13:05:59;;;;;;;;;;;25.70;32.20;;;;;;5018146;28;19932;-61
2023/12/06 13:08:33;;;;;;;;;;;25.70;31.70;;;;;;5017285;28;20012;-58
2023/12/06 13:11:00;;;;;;;;;;;25.70;31.50;;;;;;4999429;28;19925;-63
2023/12/06 13:13:27;;;;;;;;;;;25.70;31.60;;;;;;5017649;28;19960;-56
2023/12/06 13:15:55;;;;;;;;;;;25.70;31.80;;;;;;5017295;28;19926;-56
2023/12/06 13:18:23;;;;;;;;;;;25.70;31.70;;;;;;5016677;28;19925;-56
2023/12/06 13:21:00;;;;;;;;;;;25.70;31.70;;;;;;5016481;28;19925;-62
2023/12/06 13:23:28;;;;;;;;;;;25.70;31.60;;;;;;5024177;23;19972;-55
2023/12/06 13:25:56;;;;;;;;;;;25.80;31.50;;;;;;5017221;28;19925;-59
2023/12/06 13:28:55;;;;;;;;;;;25.80;31.30;;;;;;5001401;28;19925;-59
2023/12/06 13:32:30;;;;;;;;;;;25.80;31.20;;;;;;5018042;28;19924;-58
2023/12/06 13:35:01;;;;;;;;;;;25.90;31.30;;;;;;5018169;28;19973;-64
2023/12/06 13:37:32;;;;;;;;;;;25.80;31.50;;;;;;5017916;28;19925;-60
2023/12/06 13:40:00;;;;;;;;;;;25.80;31.70;;;;;;5016672;28;19974;-57
2023/12/06 13:42:27;;;;;;;;;;;25.70;31.70;;;;;;5017705;28;19925;-57
2023/12/06 13:45:06;;;;;;;;;;;25.70;31.70;;;;;;5019719;28;19929;-62
2023/12/06 13:47:33;;;;;;;;;;;25.70;31.70;;;;;;4976342;28;20263;-58
2023/12/06 13:50:01;;;;;;;;;;;25.70;31.60;;;;;;5008160;28;19980;-58
2023/12/06 13:52:28;;;;;;;;;;;25.70;31.70;;;;;;5003746;28;20354;-58
2023/12/06 13:54:55;;;;;;;;;;;25.70;31.40;;;;;;5007179;28;20455;-57
2023/12/06 13:57:22;;;;;;;;;;;25.70;31.70;;;;;;5000165;28;20150;-58
2023/12/06 13:59:49;;;;;;;;;;;25.70;31.80;;;;;;5005598;28;19945;-58
2023/12/06 14:02:16;;;;;;;;;;;25.70;31.90;;;;;;5007586;28;20018;-58
2023/12/06 14:04:44;;;;;;;;;;;25.70;32.00;;;;;;5005744;28;20091;-56
2023/12/06 14:07:11;;;;;;;;;;;25.70;31.80;;;;;;5007172;28;20003;-59
2023/12/06 14:09:38;;;;;;;;;;;25.60;31.70;;;;;;5005622;28;19992;-58
2023/12/06 14:12:05;;;;;;;;;;;25.60;31.50;;;;;;5002381;28;19942;-56
2023/12/06 14:14:33;;;;;;;;;;;25.60;31.40;;;;;;5008244;28;19931;-59
2023/12/06 14:17:00;;;;;;;;;;;25.50;31.50;;;;;;5010493;28;19932;-59
2023/12/06 14:19:26;;;;;;;;;;;25.50;32.10;;;;;;5004137;28;20020;-56
2023/12/06 14:21:54;;;;;;;;;;;25.40;31.50;;;;;;4980379;28;19935;-60
2023/12/06 14:24:21;;;;;;;;;;;25.40;31.60;;;;;;5007307;28;20221;-57
2023/12/06 14:26:48;;;;;;;;;;;25.30;31.60;;;;;;5006355;28;19925;-53
2023/12/06 14:29:15;;;;;;;;;;;25.20;31.50;;;;;;5009064;28;20032;-54
2023/12/06 14:31:42;;;;;;;;;;;25.10;31.80;;;;;;5009309;28;20386;-51
2023/12/06 14:34:10;;;;;;;;;;;25.10;31.90;;;;;;5006865;28;19929;-57
2023/12/06 14:36:39;;;;;;;;;;;25.00;32.20;;;;;;5007205;28;19929;-56
2023/12/06 14:39:12;;;;;;;;;;;25.00;32.40;;;;;;5006216;28;19934;-51
2023/12/06 14:41:39;;;;;;;;;;;25.00;32.30;;;;;;5009454;28;19972;-53
2023/12/06 14:44:06;;;;;;;;;;;24.90;32.60;;;;;;5003461;28;20394;-51
2023/12/06 14:46:33;;;;;;;;;;;24.90;32.80;;;;;;4992337;28;20011;-50
2023/12/06 14:49:00;;;;;;;;;;;24.90;32.60;;;;;;5003461;28;19934;-54
2023/12/06 14:51:27;;;;;;;;;;;24.80;32.70;;;;;;5005131;28;19933;-56
2023/12/06 14:53:54;;;;;;;;;;;24.80;33.00;;;;;;5002757;28;19929;-55
2023/12/06 14:56:24;;;;;;;;;;;24.70;33.00;;;;;;5009667;28;20375;-52
2023/12/06 14:58:51;;;;;;;;;;;24.70;33.30;;;;;;5011619;28;19932;-55
2023/12/06 15:01:18;;;;;;;;;;;24.70;33.50;;;;;;5009530;28;19929;-53
2023/12/06 15:03:45;;;;;;;;;;;24.60;33.30;;;;;;5005641;28;19930;-53
2023/12/06 15:06:14;;;;;;;;;;;24.60;33.20;;;;;;5009806;28;19937;-55
2023/12/06 15:08:41;;;;;;;;;;;24.50;33.30;;;;;;5010335;28;20330;-53
2023/12/06 15:11:09;;;;;;;;;;;24.50;33.50;;;;;;5009140;28;20023;-56
2023/12/06 15:13:36;;;;;;;;;;;24.50;33.60;;;;;;4989843;28;19925;-56
2023/12/06 15:16:03;;;;;;;;;;;24.50;33.90;;;;;;5006299;28;19940;-57
2023/12/06 15:18:30;;;;;;;;;;;24.40;34.00;;;;;;5007441;28;19933;-54
2023/12/06 15:20:57;;;;;;;;;;;24.40;33.90;;;;;;5004883;28;20264;-54
2023/12/06 15:23:24;;;;;;;;;;;24.40;33.70;;;;;;4990696;28;19929;-55
2023/12/06 15:25:51;;;;;;;;;;;24.30;33.50;;;;;;5004564;28;19961;-55
2023/12/06 15:28:18;;;;;;;;;;;24.30;33.60;;;;;;5007980;28;19960;-54
2023/12/06 15:30:45;;;;;;;;;;;24.30;33.70;;;;;;5000186;28;20030;-55
2023/12/06 15:33:12;;;;;;;;;;;24.30;33.90;;;;;;5017603;28;19925;-53
2023/12/06 15:35:39;;;;;;;;;;;24.30;33.80;;;;;;5015499;28;19926;-55
2023/12/06 15:38:07;;;;;;;;;;;24.30;33.70;;;;;;5013767;28;20409;-54
2023/12/06 15:40:35;;;;;;;;;;;24.20;33.50;;;;;;5015338;28;20015;-54
2023/12/06 15:43:06;;;;;;;;;;;24.20;33.50;;;;;;5011714;28;20397;-54
2023/12/06 15:45:33;;;;;;;;;;;24.10;33.60;;;;;;4999891;28;20354;-52
2023/12/06 15:48:05;;;;;;;;;;;24.10;33.90;;;;;;5007915;28;20429;-54
2023/12/06 15:50:34;;;;;;;;;;;24.10;34.10;;;;;;5004991;28;19926;-54
2023/12/06 15:53:03;;;;;;;;;;;24.00;34.30;;;;;;5011048;28;19925;-51
2023/12/06 15:55:30;;;;;;;;;;;24.00;34.50;;;;;;5010468;28;20306;-54
2023/12/06 15:57:58;;;;;;;;;;;23.90;34.50;;;;;;5011331;28;20255;-50
2023/12/06 16:00:27;;;;;;;;;;;23.90;34.60;;;;;;5002519;28;20267;-50
2023/12/06 16:02:55;;;;;;;;;;;23.90;34.70;;;;;;5008940;28;20458;-52
2023/12/06 16:05:23;;;;;;;;;;;23.80;35.00;;;;;;5010518;28;20220;-54